Terminal Aerodrome Forecast
Issued by NWS

Home | Current Version | Previous Version | Text Only | Print | Product List | Glossary On
Versions: 1 2 3 4 5 6 7 8 9 10 11 12 13 14 15 16 17 18 19
000
FTUS43 KGRR 301700 RRA
TAFMKG
TAF
KMKG 301750Z 3018/3118 23011KT P6SM BKN040
     FM310400 28008KT P6SM VCSH OVC025
     FM310700 32010G20KT 5SM -SHRA BR OVC015
     FM311300 33015G27KT 2SM -RA BR OVC010
     FM311500 36022G36KT 3SM -RASN BR OVC015=

USA.gov is the U.S. government's official web portal to all federal, state and local government web resources and services.